| time (UTC) | temp F | wind direction | speed knots | gust knots | rain 1hr in | rain 24hr in | rain mn in | humidity % | barometer mb |
| 20260906122835 | 77 | 91 | 1.7 | 1.7 | 0.00 | 0.00 | 0.00 | 93 | 993.4 |
| 20260906122330 | 77 | 105 | 3.5 | 4.3 | 0.00 | 0.00 | 0.00 | 93 | 993.7 |
| 20260906121827 | 77 | 357 | 0.9 | 0.9 | 0.00 | 0.00 | 0.00 | 93 | 993.8 |
| 20260906121323 | 77 | 25 | 0.9 | 0.9 | 0.00 | 0.00 | 0.00 | 93 | 993.7 |
| 20260906120819 | 77 | 15 | 0.9 | 0.9 | 0.00 | 0.00 | 0.00 | 93 | 993.8 |
| 20260906120314 | 77 | 23 | 0.9 | 0.9 | 0.00 | 0.00 | 0.00 | 93 | 993.8 |
| 20260906115810 | 77 | 354 | 0.9 | 1.7 | 0.00 | 0.00 | 0.00 | 93 | 993.9 |
| 20260906115306 | 77 | 40 | 0.0 | 0.0 | 0.00 | 0.00 | 0.00 | 93 | 994.1 |
| 20260906114805 | 76 | 18 | 0.9 | 0.9 | 0.00 | 0.00 | 0.00 | 92 | 994.0 |
| 20260906114259 | 76 | 355 | 1.7 | 1.7 | 0.00 | 0.00 | 0.00 | 93 | 993.8 |
| 20260906113755 | 76 | 349 | 0.9 | 0.9 | 0.00 | 0.00 | 0.00 | 93 | 993.8 |
| 20260906113249 | 77 | 350 | 0.0 | 0.0 | 0.00 | 0.00 | 0.00 | 92 | 993.9 |
| 20260906112748 | 77 | 8 | 1.7 | 1.7 | 0.00 | 0.00 | 0.00 | 92 | 993.8 |
| 20260906112245 | 77 | 358 | 1.7 | 1.7 | 0.00 | 0.00 | 0.00 | 92 | 993.4 |
| 20260906111739 | 76 | 6 | 0.9 | 1.7 | 0.00 | 0.00 | 0.00 | 93 | 993.3 |
| 20260906111233 | 76 | 7 | 2.6 | 2.6 | 0.00 | 0.00 | 0.00 | 93 | 993.3 |
| 20260906110728 | 76 | 13 | 0.0 | 0.0 | 0.00 | 0.00 | 0.00 | 94 | 993.2 |
| 20260906110225 | 75 | 4 | 0.0 | 0.9 | 0.00 | 0.00 | 0.00 | 95 | 992.9 |
| 20260906105723 | 75 | 8 | 2.6 | 4.3 | 0.00 | 0.00 | 0.00 | 97 | 993.0 |
| 20260906105219 | 75 | 60 | 3.5 | 5.2 | 0.00 | 0.00 | 0.00 | 97 | 993.2 |
| 20260906104719 | 75 | 288 | 0.0 | 0.0 | 0.00 | 0.00 | 0.00 | 97 | 992.2 |
| 20260906104218 | 75 | 277 | 0.0 | 0.0 | 0.00 | 0.00 | 0.00 | 97 | 992.2 |
| 20260906103716 | 75 | 286 | 0.0 | 0.0 | 0.00 | 0.00 | 0.00 | 96 | 992.3 |
| 20260906103211 | 76 | 294 | 0.0 | 0.0 | 0.00 | 0.00 | 0.00 | 96 | 992.4 |
| 20260906102706 | 76 | 317 | 0.0 | 0.0 | 0.00 | 0.00 | 0.00 | 95 | 992.2 |
| 20260906102205 | 75 | 322 | 0.0 | 0.0 | 0.00 | 0.00 | 0.00 | 96 | 992.2 |
| 20260906101700 | 75 | 323 | 0.0 | 0.0 | 0.00 | 0.00 | 0.00 | 96 | 992.1 |
| 20260906101155 | 75 | 311 | 0.0 | 0.0 | 0.00 | 0.00 | 0.00 | 96 | 992.2 |
| 20260906100650 | 76 | 317 | 0.0 | 0.0 | 0.00 | 0.00 | 0.00 | 96 | 992.1 |
| 20260906100145 | 76 | 334 | 0.0 | 0.0 | 0.00 | 0.00 | 0.00 | 95 | 992.1 |
| 20260906095640 | 75 | 57 | 0.9 | 0.9 | 0.00 | 0.00 | 0.00 | 95 | 992.1 |
| 20260906095135 | 76 | 10 | 0.0 | 0.0 | 0.00 | 0.00 | 0.00 | 94 | 991.7 |
| 20260906094634 | 76 | 321 | 0.0 | 0.0 | 0.00 | 0.00 | 0.00 | 95 | 991.8 |
| 20260906094130 | 76 | 319 | 0.0 | 0.0 | 0.00 | 0.00 | 0.00 | 95 | 991.7 |
| 20260906093626 | 76 | 313 | 0.0 | 0.0 | 0.00 | 0.00 | 0.00 | 95 | 991.8 |
| 20260906093126 | 76 | 301 | 0.0 | 0.0 | 0.00 | 0.00 | 0.00 | 94 | 991.8 |
| 20260906092621 | 76 | 339 | 0.0 | 0.0 | 0.00 | 0.00 | 0.00 | 94 | 991.6 |
| 20260906092116 | 76 | 327 | 0.0 | 0.0 | 0.00 | 0.00 | 0.00 | 94 | 991.6 |
| 20260906091612 | 77 | 352 | 0.0 | 0.0 | 0.00 | 0.00 | 0.00 | 93 | 991.6 |
| 20260906091109 | 76 | 328 | 0.0 | 0.0 | 0.00 | 0.00 | 0.00 | 93 | 991.5 |
| 20260906090608 | 77 | 303 | 0.0 | 0.0 | 0.00 | 0.00 | 0.00 | 93 | 991.4 |
| 20260906085602 | 77 | 303 | 0.0 | 0.0 | 0.00 | 0.00 | 0.00 | 93 | 991.6 |
| 20260906085056 | 77 | 318 | 0.0 | 0.0 | 0.00 | 0.00 | 0.00 | 93 | 991.7 |
| 20260906084551 | 77 | 313 | 0.0 | 0.0 | 0.00 | 0.00 | 0.00 | 93 | 991.8 |
| 20260906084050 | 77 | 321 | 0.0 | 0.0 | 0.00 | 0.00 | 0.00 | 93 | 991.8 |
| 20260906083546 | 77 | 313 | 0.0 | 0.0 | 0.00 | 0.00 | 0.00 | 92 | 992.0 |
| 20260906083045 | 77 | 312 | 0.0 | 0.0 | 0.00 | 0.00 | 0.00 | 92 | 991.9 |
| 20260906082540 | 77 | 293 | 0.0 | 0.0 | 0.00 | 0.00 | 0.00 | 93 | 991.7 |
| 20260906082036 | 77 | 305 | 0.0 | 0.0 | 0.00 | 0.00 | 0.00 | 92 | 991.8 |
| 20260906081532 | 77 | 315 | 0.0 | 0.0 | 0.00 | 0.00 | 0.00 | 92 | 991.9 |
| 20260906081027 | 77 | 321 | 0.0 | 0.0 | 0.00 | 0.00 | 0.00 | 92 | 991.7 |
| 20260906080524 | 77 | 321 | 0.0 | 0.0 | 0.00 | 0.00 | 0.00 | 92 | 992.1 |
| 20260906080019 | 77 | 329 | 0.0 | 0.0 | 0.00 | 0.00 | 0.00 | 91 | 991.9 |
| 20260906075513 | 77 | 338 | 0.0 | 0.0 | 0.00 | 0.00 | 0.00 | 91 | 991.7 |
| 20260906075009 | 77 | 299 | 0.0 | 0.0 | 0.00 | 0.00 | 0.00 | 92 | 991.9 |
| 20260906074503 | 77 | 298 | 0.0 | 0.0 | 0.00 | 0.00 | 0.00 | 91 | 991.8 |
| 20260906074001 | 77 | 297 | 0.0 | 0.0 | 0.00 | 0.00 | 0.00 | 92 | 991.8 |
| 20260906073456 | 77 | 260 | 0.0 | 0.0 | 0.00 | 0.00 | 0.00 | 91 | 991.7 |
| 20260906072953 | 77 | 300 | 0.0 | 0.0 | 0.00 | 0.00 | 0.00 | 91 | 991.9 |
| 20260906072448 | 77 | 319 | 0.0 | 0.0 | 0.00 | 0.00 | 0.00 | 91 | 992.0 |
| 20260906071943 | 78 | 321 | 0.0 | 0.0 | 0.00 | 0.00 | 0.00 | 90 | 991.7 |
| 20260906071439 | 78 | 300 | 0.0 | 0.0 | 0.00 | 0.00 | 0.00 | 90 | 991.6 |
| 20260906070935 | 78 | 300 | 0.0 | 0.0 | 0.00 | 0.00 | 0.00 | 90 | 991.7 |
| 20260906070431 | 78 | 299 | 0.0 | 0.0 | 0.00 | 0.00 | 0.00 | 89 | 991.7 |
| 20260906065926 | 78 | 312 | 0.0 | 0.0 | 0.00 | 0.00 | 0.00 | 90 | 991.7 |
| 20260906065420 | 78 | 300 | 0.0 | 0.0 | 0.00 | 0.00 | 0.00 | 90 | 991.6 |
| 20260906064916 | 78 | 269 | 0.0 | 0.0 | 0.00 | 0.00 | 0.00 | 90 | 991.8 |
| 20260906064412 | 78 | 265 | 0.0 | 0.0 | 0.00 | 0.00 | 0.00 | 90 | 991.8 |
| 20260906063907 | 78 | 288 | 0.0 | 0.0 | 0.00 | 0.00 | 0.00 | 89 | 991.8 |
| 20260906063402 | 78 | 306 | 0.0 | 0.0 | 0.00 | 0.00 | 0.00 | 90 | 991.9 |
| 20260906062857 | 78 | 228 | 0.0 | 0.0 | 0.00 | 0.00 | 0.00 | 90 | 991.7 |
| 20260906062356 | 79 | 272 | 0.9 | 0.9 | 0.00 | 0.00 | 0.00 | 89 | 991.6 |
| 20260906061852 | 79 | 278 | 0.0 | 0.0 | 0.00 | 0.00 | 0.00 | 88 | 991.8 |
| 20260906061348 | 79 | 301 | 0.0 | 0.0 | 0.00 | 0.00 | 0.00 | 88 | 991.7 |
| 20260906060843 | 79 | 302 | 0.0 | 0.0 | 0.00 | 0.00 | 0.00 | 87 | 991.8 |
| 20260906060340 | 79 | 299 | 0.0 | 0.0 | 0.00 | 0.00 | 0.00 | 87 | 991.6 |
| 20260906055836 | 78 | 286 | 0.0 | 0.0 | 0.00 | 0.00 | 0.00 | 89 | 992.0 |
| 20260906055331 | 78 | 278 | 0.9 | 0.9 | 0.00 | 0.00 | 0.00 | 93 | 991.9 |
| 20260906054827 | 77 | 305 | 0.0 | 0.9 | 0.00 | 0.00 | 0.00 | 94 | 991.9 |
| 20260906054321 | 77 | 305 | 0.0 | 0.0 | 0.00 | 0.00 | 0.00 | 95 | 992.0 |
| 20260906053818 | 78 | 267 | 0.0 | 0.0 | 0.00 | 0.00 | 0.00 | 94 | 992.2 |
| 20260906053313 | 78 | 308 | 0.0 | 0.0 | 0.00 | 0.00 | 0.00 | 94 | 992.1 |
| 20260906052809 | 78 | 308 | 0.0 | 0.0 | 0.00 | 0.00 | 0.00 | 93 | 992.0 |
| 20260906052306 | 78 | 309 | 0.0 | 0.0 | 0.00 | 0.00 | 0.00 | 93 | 992.1 |
| 20260906051802 | 79 | 308 | 0.0 | 0.0 | 0.00 | 0.00 | 0.00 | 93 | 992.2 |
| 20260906051301 | 78 | 316 | 0.0 | 0.0 | 0.00 | 0.00 | 0.00 | 92 | 992.1 |
| 20260906050756 | 79 | 323 | 0.0 | 0.0 | 0.00 | 0.00 | 0.00 | 91 | 992.0 |
| 20260906050252 | 79 | 323 | 0.0 | 0.0 | 0.00 | 0.00 | 0.00 | 91 | 992.2 |
| 20260906045750 | 79 | 323 | 0.0 | 0.0 | 0.00 | 0.00 | 0.00 | 92 | 991.8 |
| 20260906045245 | 79 | 329 | 0.0 | 0.0 | 0.00 | 0.00 | 0.00 | 92 | 992.1 |
| 20260906044741 | 79 | 330 | 0.0 | 0.0 | 0.00 | 0.00 | 0.00 | 91 | 992.1 |
| 20260906044236 | 79 | 305 | 0.0 | 0.0 | 0.00 | 0.00 | 0.00 | 91 | 992.0 |
| 20260906043732 | 79 | 305 | 0.0 | 0.0 | 0.00 | 0.00 | 0.00 | 91 | 992.2 |
| 20260906043228 | 80 | 305 | 0.0 | 0.0 | 0.00 | 0.00 | 0.00 | 90 | 992.1 |
| 20260906042727 | 79 | 313 | 0.0 | 0.0 | 0.00 | 0.00 | 0.00 | 90 | 992.1 |
| 20260906042226 | 80 | 314 | 0.0 | 0.0 | 0.00 | 0.00 | 0.00 | 89 | 991.9 |
| 20260906041722 | 80 | 322 | 0.0 | 0.0 | 0.00 | 0.00 | 0.00 | 89 | 992.2 |
| 20260906041217 | 80 | 329 | 0.0 | 0.0 | 0.00 | 0.00 | 0.00 | 89 | 992.1 |
| 20260906040713 | 80 | 351 | 0.0 | 0.0 | 0.00 | 0.00 | 0.00 | 89 | 992.0 |
| 20260906040208 | 80 | 321 | 0.0 | 0.0 | 0.00 | 0.00 | 0.00 | 90 | 992.3 |
| 20260906035703 | 80 | 335 | 0.0 | 0.0 | 0.00 | 0.00 | 0.00 | 90 | 992.0 |
| 20260906035159 | 80 | 308 | 0.0 | 0.0 | 0.00 | 0.00 | 0.00 | 90 | 992.2 |
| 20260906034653 | 80 | 307 | 0.0 | 0.0 | 0.00 | 0.00 | 0.00 | 89 | 992.1 |
| 20260906034148 | 80 | 293 | 0.0 | 0.0 | 0.00 | 0.00 | 0.00 | 89 | 992.1 |
| 20260906033643 | 80 | 271 | 0.0 | 0.0 | 0.00 | 0.00 | 0.00 | 89 | 992.2 |
| 20260906033138 | 80 | 272 | 0.0 | 0.0 | 0.00 | 0.00 | 0.00 | 88 | 992.2 |
| 20260906032635 | 81 | 296 | 0.0 | 0.0 | 0.00 | 0.00 | 0.00 | 87 | 992.2 |
| 20260906032134 | 81 | 272 | 0.0 | 0.0 | 0.00 | 0.00 | 0.00 | 84 | 992.1 |
| 20260906031630 | 81 | 325 | 0.0 | 0.0 | 0.00 | 0.00 | 0.00 | 83 | 992.0 |
| 20260906031125 | 81 | 324 | 0.0 | 0.0 | 0.00 | 0.00 | 0.00 | 84 | 991.9 |
| 20260906030624 | 81 | 353 | 0.0 | 0.0 | 0.00 | 0.00 | 0.00 | 84 | 991.9 |
| 20260906030120 | 82 | 357 | 0.0 | 0.0 | 0.00 | 0.00 | 0.00 | 83 | 991.9 |
| 20260906025619 | 83 | 263 | 0.0 | 0.0 | 0.00 | 0.00 | 0.00 | 81 | 991.9 |
| 20260906025118 | 83 | 306 | 0.0 | 0.0 | 0.00 | 0.00 | 0.00 | 79 | 992.0 |
| 20260906024613 | 82 | 277 | 0.0 | 0.0 | 0.00 | 0.00 | 0.00 | 81 | 991.7 |
| 20260906024108 | 82 | 300 | 0.0 | 0.0 | 0.00 | 0.00 | 0.00 | 82 | 991.9 |
| 20260906023604 | 82 | 291 | 0.0 | 0.0 | 0.00 | 0.00 | 0.00 | 83 | 991.9 |
| 20260906023057 | 82 | 292 | 0.0 | 0.0 | 0.00 | 0.00 | 0.00 | 83 | 991.8 |
| 20260906022553 | 82 | 308 | 0.0 | 0.0 | 0.00 | 0.00 | 0.00 | 82 | 991.8 |
| 20260906022048 | 82 | 280 | 0.0 | 0.0 | 0.00 | 0.00 | 0.00 | 83 | 991.9 |
| 20260906021544 | 83 | 256 | 0.0 | 0.9 | 0.00 | 0.00 | 0.00 | 84 | 991.6 |
| 20260906021043 | 83 | 275 | 0.0 | 0.0 | 0.00 | 0.00 | 0.00 | 82 | 991.6 |
| 20260906020543 | 84 | 274 | 0.0 | 0.0 | 0.00 | 0.00 | 0.00 | 78 | 991.6 |
| 20260906020042 | 84 | 302 | 0.0 | 0.0 | 0.00 | 0.00 | 0.00 | 77 | 991.6 |
| 20260906015542 | 84 | 295 | 0.0 | 0.0 | 0.00 | 0.00 | 0.00 | 78 | 991.5 |
| 20260906015041 | 84 | 310 | 0.0 | 0.0 | 0.00 | 0.00 | 0.00 | 78 | 991.2 |
| 20260906014536 | 85 | 294 | 0.0 | 0.0 | 0.00 | 0.00 | 0.00 | 75 | 991.4 |
| 20260906014032 | 85 | 333 | 0.0 | 0.0 | 0.00 | 0.00 | 0.00 | 74 | 991.2 |
| 20260906013527 | 86 | 312 | 0.0 | 0.0 | 0.00 | 0.00 | 0.00 | 73 | 991.3 |
| 20260906013023 | 86 | 320 | 0.0 | 0.0 | 0.00 | 0.00 | 0.00 | 71 | 991.1 |
| 20260906012518 | 86 | 326 | 0.0 | 0.0 | 0.00 | 0.00 | 0.00 | 70 | 991.2 |
| 20260906012017 | 86 | 328 | 0.0 | 0.0 | 0.00 | 0.00 | 0.00 | 70 | 991.0 |
| 20260906011514 | 87 | 329 | 0.0 | 0.0 | 0.00 | 0.00 | 0.00 | 71 | 991.1 |
| 20260906011013 | 87 | 301 | 0.0 | 0.0 | 0.00 | 0.00 | 0.00 | 70 | 991.2 |
| 20260906010508 | 87 | 299 | 0.0 | 0.0 | 0.00 | 0.00 | 0.00 | 70 | 991.1 |
| 20260906010005 | 88 | 293 | 0.0 | 0.0 | 0.00 | 0.00 | 0.00 | 68 | 991.0 |
| 20260906005504 | 88 | 302 | 0.0 | 0.0 | 0.00 | 0.00 | 0.00 | 65 | 990.9 |
| 20260906005002 | 89 | 300 | 0.0 | 0.0 | 0.00 | 0.00 | 0.00 | 64 | 990.9 |
| 20260906004457 | 89 | 317 | 0.0 | 0.0 | 0.00 | 0.00 | 0.00 | 63 | 990.7 |
| 20260906003952 | 89 | 312 | 0.0 | 0.0 | 0.00 | 0.00 | 0.00 | 62 | 990.8 |
| 20260906003447 | 90 | 312 | 0.0 | 0.0 | 0.00 | 0.00 | 0.00 | 63 | 991.0 |
| 20260906002943 | 90 | 312 | 0.0 | 0.0 | 0.00 | 0.00 | 0.00 | 61 | 990.7 |
| 20260906002443 | 91 | 271 | 0.0 | 0.0 | 0.00 | 0.00 | 0.00 | 60 | 990.7 |
| 20260906001938 | 92 | 310 | 0.0 | 0.0 | 0.00 | 0.00 | 0.00 | 59 | 990.8 |
| 20260906001434 | 92 | 317 | 0.0 | 0.0 | 0.00 | 0.00 | 0.00 | 58 | 990.8 |
| 20260906000928 | 93 | 339 | 0.0 | 0.0 | 0.00 | 0.00 | 0.00 | 57 | 991.0 |
| 20260906000425 | 93 | 346 | 0.0 | 0.9 | 0.00 | 0.00 | 0.00 | 56 | 990.9 |
| 20260905235913 | 93 | 5 | 0.9 | 1.7 | 0.00 | 0.00 | 0.00 | 55 | 991.0 |
| 20260905235407 | 94 | 5 | 1.7 | 1.7 | 0.00 | 0.00 | 0.00 | 54 | 990.7 |
| 20260905234902 | 95 | 322 | 0.0 | 0.0 | 0.00 | 0.00 | 0.00 | 54 | 990.8 |
| 20260905234357 | 95 | 329 | 0.0 | 0.0 | 0.00 | 0.00 | 0.00 | 52 | 991.0 |
| 20260905233852 | 95 | 323 | 0.0 | 0.0 | 0.00 | 0.00 | 0.00 | 52 | 990.8 |
| 20260905233347 | 95 | 14 | 0.0 | 0.0 | 0.00 | 0.00 | 0.00 | 51 | 990.8 |
| 20260905232847 | 95 | 327 | 0.0 | 0.0 | 0.00 | 0.00 | 0.00 | 52 | 990.8 |
| 20260905232343 | 96 | 333 | 0.0 | 0.0 | 0.00 | 0.00 | 0.00 | 51 | 990.9 |
| 20260905231838 | 96 | 332 | 0.0 | 0.0 | 0.00 | 0.00 | 0.00 | 50 | 990.7 |
| 20260905231333 | 96 | 352 | 0.0 | 0.0 | 0.00 | 0.00 | 0.00 | 49 | 990.7 |
| 20260905230830 | 97 | 326 | 0.0 | 0.0 | 0.00 | 0.00 | 0.00 | 49 | 991.0 |
| 20260905230327 | 97 | 89 | 0.0 | 0.9 | 0.00 | 0.00 | 0.00 | 48 | 990.9 |
| 20260905225826 | 98 | 24 | 1.7 | 1.7 | 0.00 | 0.00 | 0.00 | 48 | 990.7 |
| 20260905225321 | 97 | 78 | 0.0 | 0.0 | 0.00 | 0.00 | 0.00 | 47 | 990.8 |
| 20260905224816 | 98 | 324 | 0.0 | 0.0 | 0.00 | 0.00 | 0.00 | 50 | 990.8 |
| 20260905224312 | 98 | 330 | 0.0 | 0.0 | 0.00 | 0.00 | 0.00 | 48 | 990.9 |
| 20260905223807 | 98 | 311 | 0.0 | 0.0 | 0.00 | 0.00 | 0.00 | 47 | 990.6 |
| 20260905223304 | 98 | 354 | 0.0 | 0.9 | 0.00 | 0.00 | 0.00 | 48 | 990.9 |
| 20260905222759 | 98 | 156 | 0.9 | 0.9 | 0.00 | 0.00 | 0.00 | 46 | 990.8 |
| 20260905222258 | 98 | 358 | 0.0 | 0.9 | 0.00 | 0.00 | 0.00 | 47 | 991.0 |
| 20260905221754 | 99 | 346 | 1.7 | 1.7 | 0.00 | 0.00 | 0.00 | 46 | 990.9 |
| 20260905221251 | 100 | 22 | 0.0 | 0.9 | 0.00 | 0.00 | 0.00 | 45 | 990.9 |
| 20260905220746 | 99 | 323 | 0.9 | 0.9 | 0.00 | 0.00 | 0.00 | 45 | 990.8 |
| 20260905220242 | 98 | 342 | 0.9 | 0.9 | 0.00 | 0.00 | 0.00 | 46 | 990.7 |
| 20260905215741 | 99 | 340 | 0.0 | 0.9 | 0.00 | 0.00 | 0.00 | 45 | 991.1 |
| 20260905215237 | 98 | 310 | 0.9 | 0.9 | 0.00 | 0.00 | 0.00 | 47 | 991.0 |
| 20260905214733 | 100 | 2 | 4.3 | 5.2 | 0.00 | 0.00 | 0.00 | 47 | 991.0 |
| 20260905214228 | 100 | 304 | 0.9 | 0.9 | 0.00 | 0.00 | 0.00 | 45 | 991.1 |
| 20260905213718 | 99 | 321 | 0.9 | 0.9 | 0.00 | 0.00 | 0.00 | 45 | 991.0 |
| 20260905213214 | 99 | 323 | 0.9 | 0.9 | 0.00 | 0.00 | 0.00 | 47 | 991.2 |
| 20260905212709 | 98 | 251 | 0.9 | 0.9 | 0.00 | 0.00 | 0.00 | 47 | 991.0 |
| 20260905212208 | 99 | 359 | 0.0 | 0.0 | 0.00 | 0.00 | 0.00 | 47 | 991.1 |
| 20260905211703 | 100 | 64 | 0.9 | 1.7 | 0.00 | 0.00 | 0.00 | 46 | 991.1 |
| 20260905211158 | 100 | 231 | 0.9 | 0.9 | 0.00 | 0.00 | 0.00 | 44 | 991.3 |
| 20260905210654 | 100 | 11 | 2.6 | 2.6 | 0.00 | 0.00 | 0.00 | 47 | 991.3 |
| 20260905210149 | 100 | 2 | 1.7 | 1.7 | 0.00 | 0.00 | 0.00 | 46 | 991.3 |
| 20260905205648 | 100 | 95 | 1.7 | 1.7 | 0.00 | 0.00 | 0.00 | 47 | 991.1 |
| 20260905205147 | 100 | 72 | 0.9 | 1.7 | 0.00 | 0.00 | 0.00 | 45 | 991.2 |
| 20260905204646 | 99 | 98 | 2.6 | 4.3 | 0.00 | 0.00 | 0.00 | 47 | 991.5 |
| 20260905204142 | 99 | 343 | 1.7 | 1.7 | 0.00 | 0.00 | 0.00 | 48 | 991.4 |
| 20260905203637 | 99 | 17 | 2.6 | 2.6 | 0.00 | 0.00 | 0.00 | 48 | 991.6 |
| 20260905203132 | 99 | 9 | 2.6 | 4.3 | 0.00 | 0.00 | 0.00 | 48 | 991.6 |
| 20260905202628 | 99 | 28 | 0.9 | 1.7 | 0.00 | 0.00 | 0.00 | 48 | 991.8 |
| 20260905202123 | 99 | 33 | 2.6 | 2.6 | 0.00 | 0.00 | 0.00 | 47 | 991.8 |
| 20260905201619 | 98 | 359 | 2.6 | 2.6 | 0.00 | 0.00 | 0.00 | 49 | 991.8 |
| 20260905201118 | 98 | 18 | 0.9 | 1.7 | 0.00 | 0.00 | 0.00 | 47 | 991.9 |
| 20260905200614 | 97 | 355 | 1.7 | 1.7 | 0.00 | 0.00 | 0.00 | 49 | 992.1 |
| 20260905200108 | 98 | 334 | 0.0 | 0.9 | 0.00 | 0.00 | 0.00 | 48 | 992.2 |
| 20260905195602 | 98 | 347 | 1.7 | 2.6 | 0.00 | 0.00 | 0.00 | 48 | 992.2 |
| 20260905195057 | 102 | 45 | 1.7 | 1.7 | 0.00 | 0.00 | 0.00 | 43 | 992.1 |
| 20260905194557 | 102 | 307 | 0.9 | 0.9 | 0.00 | 0.00 | 0.00 | 44 | 992.2 |
| 20260905194056 | 102 | 42 | 1.7 | 1.7 | 0.00 | 0.00 | 0.00 | 43 | 992.4 |
| 20260905193551 | 101 | 303 | 0.0 | 0.9 | 0.00 | 0.00 | 0.00 | 43 | 992.5 |
| 20260905193046 | 101 | 82 | 4.3 | 5.2 | 0.00 | 0.00 | 0.00 | 43 | 992.5 |
| 20260905192542 | 102 | 103 | 4.3 | 6.1 | 0.00 | 0.00 | 0.00 | 42 | 992.5 |
| 20260905192038 | 100 | 307 | 0.9 | 0.9 | 0.00 | 0.00 | 0.00 | 43 | 992.5 |
| 20260905191536 | 100 | 57 | 0.9 | 0.9 | 0.00 | 0.00 | 0.00 | 45 | 992.6 |
| 20260905191036 | 99 | 73 | 1.7 | 1.7 | 0.00 | 0.00 | 0.00 | 46 | 992.8 |
| 20260905190533 | 101 | 356 | 0.9 | 1.7 | 0.00 | 0.00 | 0.00 | 47 | 992.8 |
| 20260905190028 | 101 | 95 | 0.9 | 1.7 | 0.00 | 0.00 | 0.00 | 45 | 992.8 |
| 20260905185527 | 101 | 3 | 0.0 | 0.9 | 0.00 | 0.00 | 0.00 | 44 | 993.0 |
| 20260905185026 | 101 | 305 | 0.0 | 0.9 | 0.00 | 0.00 | 0.00 | 45 | 993.1 |
| 20260905184521 | 100 | 220 | 2.6 | 2.6 | 0.00 | 0.00 | 0.00 | 44 | 993.2 |
| 20260905184019 | 99 | 355 | 0.9 | 0.9 | 0.00 | 0.00 | 0.00 | 46 | 993.2 |
| 20260905183514 | 98 | 313 | 0.0 | 0.0 | 0.00 | 0.00 | 0.00 | 49 | 993.3 |
| 20260905183009 | 98 | 110 | 3.5 | 4.3 | 0.00 | 0.00 | 0.00 | 49 | 993.3 |
| 20260905182509 | 97 | 357 | 0.9 | 0.9 | 0.00 | 0.00 | 0.00 | 49 | 993.3 |
| 20260905182003 | 99 | 112 | 3.5 | 5.2 | 0.00 | 0.00 | 0.00 | 48 | 993.4 |
| 20260905181458 | 99 | 315 | 0.9 | 1.7 | 0.00 | 0.00 | 0.00 | 48 | 993.5 |
| 20260905180957 | 100 | 7 | 4.3 | 6.1 | 0.00 | 0.00 | 0.00 | 49 | 993.3 |
| 20260905180452 | 100 | 347 | 0.0 | 0.0 | 0.00 | 0.00 | 0.00 | 49 | 993.4 |
| 20260905175947 | 100 | 102 | 1.7 | 1.7 | 0.00 | 0.00 | 0.00 | 47 | 993.5 |
| 20260905175447 | 100 | 45 | 0.9 | 1.7 | 0.00 | 0.00 | 0.00 | 48 | 993.4 |
| 20260905174943 | 101 | 89 | 2.6 | 2.6 | 0.00 | 0.00 | 0.00 | 48 | 993.6 |
| 20260905174437 | 99 | 93 | 2.6 | 2.6 | 0.00 | 0.00 | 0.00 | 49 | 993.7 |
| 20260905173933 | 100 | 101 | 1.7 | 1.7 | 0.00 | 0.00 | 0.00 | 48 | 993.7 |
| 20260905173430 | 98 | 347 | 1.7 | 1.7 | 0.00 | 0.00 | 0.00 | 50 | 993.6 |
| 20260905172925 | 100 | 319 | 1.7 | 1.7 | 0.00 | 0.00 | 0.00 | 47 | 993.7 |
| 20260905172422 | 97 | 320 | 0.9 | 0.9 | 0.00 | 0.00 | 0.00 | 51 | 993.8 |
| 20260905171919 | 99 | 294 | 1.7 | 1.7 | 0.00 | 0.00 | 0.00 | 48 | 993.8 |
| 20260905171415 | 97 | 3 | 2.6 | 2.6 | 0.00 | 0.00 | 0.00 | 51 | 994.0 |
| 20260905170911 | 99 | 6 | 1.7 | 1.7 | 0.00 | 0.00 | 0.00 | 49 | 993.9 |
| 20260905170407 | 98 | 30 | 2.6 | 2.6 | 0.00 | 0.00 | 0.00 | 49 | 994.1 |
| 20260905165906 | 98 | 3 | 0.9 | 1.7 | 0.00 | 0.00 | 0.00 | 50 | 993.9 |
| 20260905165401 | 98 | 126 | 0.9 | 1.7 | 0.00 | 0.00 | 0.00 | 51 | 994.0 |
| 20260905164856 | 97 | 312 | 0.9 | 1.7 | 0.00 | 0.00 | 0.00 | 51 | 994.1 |
| 20260905164351 | 98 | 358 | 2.6 | 2.6 | 0.00 | 0.00 | 0.00 | 49 | 994.3 |
| 20260905163846 | 97 | 320 | 0.0 | 0.9 | 0.00 | 0.00 | 0.00 | 50 | 994.4 |
| 20260905163343 | 97 | 331 | 1.7 | 1.7 | 0.00 | 0.00 | 0.00 | 51 | 994.4 |
| 20260905162839 | 97 | 173 | 1.7 | 1.7 | 0.00 | 0.00 | 0.00 | 52 | 994.5 |
| 20260905162338 | 95 | 314 | 0.0 | 0.9 | 0.00 | 0.00 | 0.00 | 54 | 994.4 |
| 20260905161833 | 96 | 317 | 0.9 | 0.9 | 0.00 | 0.00 | 0.00 | 54 | 994.4 |
| 20260905161332 | 95 | 115 | 3.5 | 5.2 | 0.00 | 0.00 | 0.00 | 53 | 994.6 |
| 20260905160830 | 96 | 19 | 3.5 | 5.2 | 0.00 | 0.00 | 0.00 | 54 | 994.5 |
| 20260905160325 | 96 | 357 | 0.9 | 0.9 | 0.00 | 0.00 | 0.00 | 56 | 994.5 |
| 20260905155820 | 96 | 300 | 0.9 | 0.9 | 0.00 | 0.00 | 0.00 | 54 | 994.7 |
| 20260905155319 | 95 | 81 | 0.0 | 0.9 | 0.00 | 0.00 | 0.00 | 56 | 994.7 |
| 20260905154813 | 94 | 18 | 1.7 | 1.7 | 0.00 | 0.00 | 0.00 | 57 | 994.7 |
| 20260905154309 | 94 | 308 | 0.9 | 0.9 | 0.00 | 0.00 | 0.00 | 58 | 994.6 |
| 20260905153804 | 95 | 149 | 0.9 | 0.9 | 0.00 | 0.00 | 0.00 | 58 | 994.6 |
| 20260905153300 | 95 | 307 | 0.9 | 1.7 | 0.00 | 0.00 | 0.00 | 58 | 994.8 |
| 20260905152754 | 95 | 346 | 0.9 | 1.7 | 0.00 | 0.00 | 0.00 | 59 | 994.8 |
| 20260905152254 | 93 | 350 | 1.7 | 1.7 | 0.00 | 0.00 | 0.00 | 59 | 994.8 |
| 20260905151754 | 93 | 291 | 0.0 | 0.0 | 0.00 | 0.00 | 0.00 | 60 | 994.8 |
| 20260905151250 | 93 | 317 | 1.7 | 2.6 | 0.00 | 0.00 | 0.00 | 61 | 994.7 |
| 20260905150744 | 93 | 7 | 0.0 | 0.0 | 0.00 | 0.00 | 0.00 | 64 | 994.9 |
| 20260905150244 | 92 | 345 | 0.9 | 0.9 | 0.00 | 0.00 | 0.00 | 65 | 994.9 |
| 20260905145741 | 91 | 348 | 0.9 | 1.7 | 0.00 | 0.00 | 0.00 | 67 | 994.8 |
| 20260905145236 | 93 | 7 | 1.7 | 2.6 | 0.00 | 0.00 | 0.00 | 64 | 995.0 |
| 20260905144735 | 91 | 79 | 0.9 | 0.9 | 0.00 | 0.00 | 0.00 | 65 | 995.0 |
| 20260905144230 | 91 | 324 | 0.0 | 0.9 | 0.00 | 0.00 | 0.00 | 68 | 994.9 |
| 20260905143730 | 91 | 55 | 0.9 | 0.9 | 0.00 | 0.00 | 0.00 | 67 | 995.0 |
| 20260905143229 | 88 | 314 | 0.0 | 0.0 | 0.00 | 0.00 | 0.00 | 70 | 995.0 |
| 20260905142727 | 89 | 349 | 0.0 | 0.9 | 0.00 | 0.00 | 0.00 | 68 | 994.8 |
| 20260905142222 | 90 | 0 | 0.9 | 1.7 | 0.00 | 0.00 | 0.00 | 69 | 994.8 |
| 20260905141718 | 89 | 301 | 0.0 | 0.9 | 0.00 | 0.00 | 0.00 | 70 | 994.7 |
| 20260905141214 | 88 | 27 | 1.7 | 1.7 | 0.00 | 0.00 | 0.00 | 72 | 994.6 |
| 20260905140709 | 87 | 107 | 0.9 | 1.7 | 0.00 | 0.00 | 0.00 | 74 | 994.6 |
| 20260905140203 | 87 | 9 | 1.7 | 1.7 | 0.00 | 0.00 | 0.00 | 74 | 994.5 |
| 20260905135657 | 86 | 116 | 2.6 | 2.6 | 0.00 | 0.00 | 0.00 | 76 | 994.5 |
| 20260905135148 | 85 | 101 | 1.7 | 1.7 | 0.00 | 0.00 | 0.00 | 78 | 994.7 |
| 20260905134647 | 85 | 31 | 0.0 | 0.9 | 0.00 | 0.00 | 0.00 | 78 | 994.7 |
| 20260905134146 | 84 | 95 | 1.7 | 1.7 | 0.00 | 0.00 | 0.00 | 80 | 994.7 |
| 20260905133641 | 84 | 28 | 0.9 | 0.9 | 0.00 | 0.00 | 0.00 | 80 | 994.8 |
| 20260905133136 | 84 | 85 | 0.9 | 0.9 | 0.00 | 0.00 | 0.00 | 81 | 994.6 |
| 20260905132635 | 83 | 92 | 0.9 | 0.9 | 0.00 | 0.00 | 0.00 | 82 | 994.7 |
| 20260905132131 | 83 | 21 | 0.9 | 0.9 | 0.00 | 0.00 | 0.00 | 83 | 994.9 |
| 20260905131626 | 81 | 107 | 2.6 | 2.6 | 0.00 | 0.00 | 0.00 | 84 | 994.9 |
| 20260905131120 | 80 | 3 | 0.0 | 0.0 | 0.00 | 0.00 | 0.00 | 88 | 995.0 |
| 20260905130615 | 80 | 329 | 0.0 | 0.0 | 0.00 | 0.00 | 0.00 | 89 | 994.9 |
| 20260905130115 | 80 | 351 | 0.0 | 0.0 | 0.00 | 0.00 | 0.00 | 89 | 994.9 |
| 20260905125609 | 78 | 330 | 0.0 | 0.0 | 0.00 | 0.00 | 0.00 | 93 | 994.6 |
| 20260905125105 | 77 | 315 | 0.0 | 0.0 | 0.00 | 0.00 | 0.00 | 95 | 994.6 |
| 20260905124601 | 77 | 327 | 0.0 | 0.0 | 0.00 | 0.00 | 0.00 | 97 | 994.5 |
| 20260905124057 | 75 | 313 | 0.0 | 0.0 | 0.00 | 0.00 | 0.00 | 98 | 994.6 |
| 20260905123551 | 75 | 326 | 0.0 | 0.0 | 0.00 | 0.00 | 0.00 | 99 | 994.5 |